createdAt,value
2018-08-17T00:01:49.184Z,10.33
2018-08-17T00:05:52.894Z,12.23
2018-08-17T00:09:56.620Z,11.20
2018-08-17T00:14:00.320Z,11.00
2018-08-17T00:18:04.075Z,12.37
2018-08-17T00:22:08.785Z,12.20
2018-08-17T00:26:12.541Z,11.13
2018-08-17T00:30:16.224Z,10.87
2018-08-17T00:34:19.896Z,9.87
2018-08-17T00:38:23.584Z,10.77
2018-08-17T00:42:27.417Z,12.10
2018-08-17T00:46:31.117Z,9.93
2018-08-17T00:50:34.956Z,12.03
2018-08-17T00:54:38.651Z,14.93
2018-08-17T00:58:42.344Z,15.23
2018-08-17T01:02:46.046Z,10.53
2018-08-17T01:06:49.712Z,10.50
2018-08-17T01:10:53.397Z,11.03
2018-08-17T01:14:57.092Z,15.73
2018-08-17T01:19:00.792Z,14.43
2018-08-17T01:23:04.550Z,13.80
2018-08-17T01:27:08.224Z,11.17
2018-08-17T01:31:11.972Z,11.93
2018-08-17T01:35:15.668Z,11.30
2018-08-17T01:39:19.360Z,11.30
2018-08-17T01:43:23.048Z,13.20
2018-08-17T01:47:26.787Z,13.13
2018-08-17T01:51:30.488Z,13.30
2018-08-17T01:55:34.189Z,13.67
2018-08-17T01:59:37.908Z,14.33
2018-08-17T02:03:41.627Z,12.77
2018-08-17T02:07:45.296Z,12.47
2018-08-17T02:11:49.018Z,10.30
2018-08-17T02:15:52.727Z,12.23
2018-08-17T02:19:56.428Z,11.77
2018-08-17T02:24:00.173Z,13.87
2018-08-17T02:28:03.905Z,13.17
2018-08-17T02:32:07.664Z,11.93
2018-08-17T02:36:11.365Z,12.20
2018-08-17T02:40:15.123Z,14.03
2018-08-17T02:44:18.854Z,18.90
2018-08-17T02:48:22.526Z,13.40
2018-08-17T02:52:26.290Z,15.60
2018-08-17T02:56:30.031Z,15.97
2018-08-17T03:00:33.737Z,13.00
2018-08-17T03:04:37.418Z,21.93
2018-08-17T03:08:41.072Z,16.00
2018-08-17T03:12:44.750Z,13.03
2018-08-17T03:16:48.765Z,12.83
2018-08-17T03:20:52.486Z,14.60
2018-08-17T03:24:56.233Z,12.40
2018-08-17T03:28:59.889Z,17.73
2018-08-17T03:33:03.627Z,19.53
2018-08-17T03:37:07.495Z,15.07
2018-08-17T03:41:11.192Z,15.47
2018-08-17T03:45:14.877Z,13.73
2018-08-17T03:49:18.606Z,15.93
2018-08-17T03:53:22.292Z,13.63
2018-08-17T03:57:26.072Z,14.90
2018-08-17T04:01:29.773Z,16.13
2018-08-17T04:05:33.445Z,15.87
2018-08-17T04:09:37.105Z,18.07
2018-08-17T04:13:40.816Z,24.67
2018-08-17T04:17:44.499Z,20.37
2018-08-17T04:21:48.183Z,24.00
2018-08-17T04:25:51.960Z,27.17
2018-08-17T04:29:55.609Z,21.53
2018-08-17T04:33:59.287Z,22.43
2018-08-17T04:38:03.080Z,22.77
2018-08-17T04:42:06.784Z,23.80
2018-08-17T04:46:10.568Z,20.23
2018-08-17T04:50:14.230Z,21.93
2018-08-17T04:54:18.014Z,22.47
2018-08-17T04:58:21.802Z,21.73
2018-08-17T05:02:25.496Z,23.97
2018-08-17T05:06:29.200Z,20.47
2018-08-17T05:10:32.856Z,21.90
2018-08-17T05:14:36.566Z,23.13
2018-08-17T05:18:40.266Z,19.93
2018-08-17T05:22:43.976Z,23.13
2018-08-17T05:26:47.688Z,25.63
2018-08-17T05:34:49.750Z,19.13
2018-08-17T05:38:53.722Z,22.33
2018-08-17T05:42:57.427Z,22.53
2018-08-17T05:47:01.233Z,20.37
2018-08-17T05:51:04.947Z,20.07
2018-08-17T05:55:08.666Z,19.17
2018-08-17T05:59:12.451Z,22.83
2018-08-17T06:03:16.274Z,17.87
2018-08-17T06:07:19.972Z,20.87
2018-08-17T06:11:23.862Z,21.87
2018-08-17T06:15:27.485Z,20.03
2018-08-17T06:19:31.158Z,18.27
2018-08-17T06:23:34.885Z,22.70
2018-08-17T06:27:38.981Z,21.03
2018-08-17T06:31:42.692Z,21.47
2018-08-17T06:35:46.382Z,18.77
2018-08-17T06:39:50.403Z,18.97
2018-08-17T06:43:54.102Z,17.50
2018-08-17T06:47:57.810Z,15.00
2018-08-17T06:52:01.469Z,11.97
2018-08-17T06:56:05.212Z,11.20
2018-08-17T07:00:14.340Z,10.50
2018-08-17T07:04:18.073Z,12.20
2018-08-17T07:08:21.759Z,15.23
2018-08-17T07:12:25.454Z,9.93
2018-08-17T07:16:29.222Z,12.40
2018-08-17T07:20:32.946Z,11.00
2018-08-17T07:24:36.798Z,10.43
2018-08-17T07:28:40.481Z,10.60
2018-08-17T07:32:44.114Z,8.33
2018-08-17T07:36:47.912Z,8.43
2018-08-17T07:40:51.614Z,10.43
2018-08-17T07:44:55.383Z,11.13
2018-08-17T07:48:59.052Z,7.90
2018-08-17T07:53:02.726Z,10.27
2018-08-17T07:57:06.508Z,5.17
2018-08-17T08:01:10.309Z,7.23
2018-08-17T08:05:14.019Z,6.37
2018-08-17T08:09:17.835Z,4.67
2018-08-17T08:13:21.719Z,6.83
2018-08-17T08:17:25.497Z,5.30
2018-08-17T08:21:29.166Z,5.10
2018-08-17T08:25:33.226Z,7.77
2018-08-17T08:29:36.918Z,7.43
2018-08-17T08:33:40.592Z,7.23
2018-08-17T08:37:44.448Z,5.50
2018-08-17T08:41:48.128Z,6.23
2018-08-17T08:45:51.887Z,5.37
2018-08-17T08:49:55.667Z,8.50
2018-08-17T08:53:59.319Z,8.83
2018-08-17T08:58:03.024Z,9.30
2018-08-17T09:02:06.751Z,9.37
2018-08-17T09:06:10.410Z,7.83
2018-08-17T09:10:14.151Z,11.00
2018-08-17T09:14:17.829Z,9.43
2018-08-17T09:18:21.512Z,10.00
2018-08-17T09:22:25.224Z,9.20
2018-08-17T09:30:38.708Z,9.33
2018-08-17T09:34:42.394Z,8.20
2018-08-17T09:38:46.073Z,9.77
2018-08-17T09:42:49.793Z,8.43
2018-08-17T09:46:53.469Z,7.70
2018-08-17T09:50:57.163Z,9.53
2018-08-17T09:55:00.824Z,10.77
2018-08-17T09:59:05.025Z,10.73
2018-08-17T10:03:12.957Z,10.83
2018-08-17T10:07:21.881Z,11.60
2018-08-17T10:11:25.627Z,9.47
2018-08-17T10:15:29.311Z,12.33
2018-08-17T10:19:33.053Z,10.40
2018-08-17T10:23:36.751Z,9.40
2018-08-17T10:27:40.490Z,10.23
2018-08-17T10:31:44.569Z,12.50
2018-08-17T10:35:48.254Z,8.17
2018-08-17T10:39:52.199Z,7.00
2018-08-17T10:43:55.911Z,6.57
2018-08-17T10:47:59.833Z,5.27
2018-08-17T10:52:03.560Z,7.47
2018-08-17T10:56:07.320Z,7.77
2018-08-17T11:00:14.544Z,11.00
2018-08-17T11:04:18.226Z,11.97
2018-08-17T11:08:21.900Z,12.33
2018-08-17T11:12:25.544Z,9.47
2018-08-17T11:16:29.255Z,11.53
2018-08-17T11:20:32.938Z,10.27
2018-08-17T11:24:36.660Z,9.13
2018-08-17T11:28:40.377Z,7.47
2018-08-17T11:32:44.145Z,8.80
2018-08-17T11:36:47.835Z,9.10
2018-08-17T11:40:51.516Z,9.30
2018-08-17T11:44:55.199Z,7.87
2018-08-17T11:48:58.872Z,7.17
2018-08-17T11:53:02.530Z,7.67
2018-08-17T11:57:06.287Z,9.00
2018-08-17T12:01:15.540Z,7.07
2018-08-17T12:05:19.172Z,5.30
2018-08-17T12:09:22.858Z,4.43
2018-08-17T12:13:26.722Z,5.03
2018-08-17T12:17:30.565Z,5.70
2018-08-17T12:21:34.253Z,3.37
2018-08-17T12:25:43.575Z,3.60
2018-08-17T12:29:47.264Z,3.57
2018-08-17T12:33:50.935Z,3.37
2018-08-17T12:38:00.111Z,2.90
2018-08-17T12:42:03.853Z,2.93
2018-08-17T12:46:07.672Z,3.33
2018-08-17T12:50:11.394Z,4.20
2018-08-17T12:54:25.942Z,3.80
2018-08-17T12:58:29.638Z,3.00
2018-08-17T13:02:33.317Z,3.40
2018-08-17T13:06:37.068Z,3.33
2018-08-17T13:10:40.807Z,3.00
2018-08-17T13:14:44.440Z,2.57
2018-08-17T13:18:48.175Z,3.23
2018-08-17T13:22:51.888Z,2.30
2018-08-17T13:26:55.613Z,3.17
2018-08-17T13:30:59.296Z,2.30
2018-08-17T13:35:03.056Z,2.37
2018-08-17T13:39:08.977Z,2.20
2018-08-17T13:43:12.672Z,1.87
2018-08-17T13:47:16.525Z,1.83
2018-08-17T13:51:20.208Z,4.60
2018-08-17T13:55:24.044Z,2.00
2018-08-17T13:59:27.892Z,2.40
2018-08-17T14:03:32.470Z,2.33
2018-08-17T14:07:36.180Z,1.53
2018-08-17T14:11:39.871Z,2.20
2018-08-17T14:15:43.585Z,1.90
2018-08-17T14:19:47.290Z,2.40
2018-08-17T14:23:51.169Z,1.80
2018-08-17T14:27:54.896Z,2.33
2018-08-17T14:31:58.601Z,1.53
2018-08-17T14:36:02.263Z,1.70
2018-08-17T14:40:06.176Z,2.37
2018-08-17T14:44:09.901Z,2.13
2018-08-17T14:48:13.716Z,3.90
2018-08-17T14:52:17.428Z,5.27
2018-08-17T14:56:21.100Z,6.10
2018-08-17T15:00:24.793Z,5.30
2018-08-17T15:04:28.497Z,5.67
2018-08-17T15:08:32.196Z,4.77
2018-08-17T15:12:35.911Z,6.90
2018-08-17T15:16:39.655Z,6.47
2018-08-17T15:20:43.404Z,5.10
2018-08-17T15:24:47.145Z,5.60
2018-08-17T15:28:50.893Z,4.83
2018-08-17T15:32:54.601Z,6.50
2018-08-17T15:36:58.248Z,5.47
2018-08-17T15:41:02.016Z,5.17
2018-08-17T15:45:06.892Z,5.33
2018-08-17T15:49:14.189Z,5.93
2018-08-17T15:53:17.885Z,3.93
2018-08-17T15:57:21.638Z,4.77
2018-08-17T16:01:25.419Z,3.60
2018-08-17T16:05:29.068Z,4.47
2018-08-17T16:09:32.776Z,5.23
2018-08-17T16:13:36.449Z,5.10
2018-08-17T16:17:40.300Z,7.13
2018-08-17T16:21:44.008Z,4.20
2018-08-17T16:25:47.856Z,5.97
2018-08-17T16:29:51.549Z,7.47
2018-08-17T16:33:55.297Z,2.97
2018-08-17T16:37:59.044Z,3.30
2018-08-17T16:42:02.759Z,3.50
2018-08-17T16:46:06.475Z,2.80
2018-08-17T16:50:10.271Z,3.77
2018-08-17T16:54:13.940Z,4.23
2018-08-17T16:58:17.751Z,2.77
2018-08-17T17:02:21.462Z,3.93
2018-08-17T17:06:25.208Z,4.77
2018-08-17T17:10:30.543Z,5.27
2018-08-17T17:14:34.281Z,4.10
2018-08-17T17:18:37.980Z,3.77
2018-08-17T17:22:41.687Z,4.43
2018-08-17T17:26:45.447Z,3.40
2018-08-17T17:30:50.148Z,3.93
2018-08-17T17:34:53.800Z,4.80
2018-08-17T17:38:57.525Z,4.43
2018-08-17T17:43:01.397Z,6.53
2018-08-17T17:47:05.108Z,5.03
2018-08-17T17:51:08.860Z,4.93
2018-08-17T17:55:12.528Z,5.03
2018-08-17T17:59:16.233Z,5.80
2018-08-17T18:03:19.942Z,4.60
2018-08-17T18:07:24.327Z,4.70
2018-08-17T18:11:28.231Z,6.17
2018-08-17T18:15:31.943Z,4.60
2018-08-17T18:19:35.718Z,4.47
2018-08-17T18:23:39.433Z,7.17
2018-08-17T18:27:43.249Z,5.93
2018-08-17T18:31:46.958Z,4.87
2018-08-17T18:35:50.650Z,6.23
2018-08-17T18:39:54.353Z,6.17
2018-08-17T18:43:58.301Z,4.37
2018-08-17T18:48:02.029Z,4.73
2018-08-17T18:52:05.818Z,4.43
2018-08-17T18:56:09.499Z,6.23
2018-08-17T19:00:13.990Z,4.77
2018-08-17T19:04:17.688Z,10.17
2018-08-17T19:08:21.378Z,5.53
2018-08-17T19:12:25.122Z,6.47
2018-08-17T19:16:28.785Z,6.20
2018-08-17T19:20:32.492Z,5.30
2018-08-17T19:24:36.246Z,8.03
2018-08-17T19:28:40.087Z,3.73
2018-08-17T19:32:43.789Z,3.87
2018-08-17T19:36:47.546Z,6.97
2018-08-17T19:40:51.482Z,4.97
2018-08-17T19:44:55.191Z,4.57
2018-08-17T19:48:58.873Z,3.77
2018-08-17T19:53:02.580Z,4.20
2018-08-17T19:57:06.348Z,5.63
2018-08-17T20:01:10.045Z,6.20
2018-08-17T20:05:13.992Z,7.13
2018-08-17T20:09:17.712Z,8.03
2018-08-17T20:13:21.385Z,5.70
2018-08-17T20:17:25.081Z,8.07
2018-08-17T20:21:28.791Z,9.77
2018-08-17T20:25:32.504Z,9.47
2018-08-17T20:29:36.193Z,8.43
2018-08-17T20:33:39.876Z,8.70
2018-08-17T20:37:45.427Z,4.90
2018-08-17T20:41:49.148Z,5.97
2018-08-17T20:45:52.866Z,8.60
2018-08-17T20:49:56.624Z,6.03
2018-08-17T20:54:01.691Z,7.03
2018-08-17T20:58:05.772Z,8.97
2018-08-17T21:02:09.461Z,5.63
2018-08-17T21:06:13.175Z,6.73
2018-08-17T21:10:16.888Z,6.57
2018-08-17T21:14:20.580Z,10.17
2018-08-17T21:18:24.274Z,5.27
2018-08-17T21:22:27.983Z,7.07
2018-08-17T21:26:33.190Z,6.57
2018-08-17T21:30:36.893Z,5.70
2018-08-17T21:34:40.537Z,6.90
2018-08-17T21:38:44.355Z,6.83
2018-08-17T21:42:48.316Z,7.97
2018-08-17T21:46:57.264Z,6.13
2018-08-17T21:51:01.309Z,4.90
2018-08-17T21:55:04.983Z,6.07
2018-08-17T21:59:08.671Z,4.43
2018-08-17T22:03:24.945Z,4.17
2018-08-17T22:07:31.137Z,5.67
2018-08-17T22:11:35.644Z,7.70
2018-08-17T22:15:39.347Z,8.37
2018-08-17T22:19:43.556Z,4.53
2018-08-17T22:23:47.229Z,5.17
2018-08-17T22:27:51.095Z,6.37
2018-08-17T22:31:54.792Z,7.63
2018-08-17T22:35:58.606Z,4.63
2018-08-17T22:40:02.291Z,10.67
2018-08-17T22:44:10.205Z,10.90
2018-08-17T22:48:13.909Z,7.77
2018-08-17T22:52:17.745Z,7.00
2018-08-17T22:56:21.433Z,6.60
2018-08-17T23:00:26.483Z,8.10
2018-08-17T23:04:30.248Z,8.30
2018-08-17T23:08:33.947Z,8.90
2018-08-17T23:12:37.662Z,10.37
2018-08-17T23:16:41.425Z,6.80
2018-08-17T23:20:45.088Z,7.17
2018-08-17T23:24:48.813Z,7.97
2018-08-17T23:28:52.481Z,7.97
2018-08-17T23:32:56.362Z,8.03
2018-08-17T23:37:00.185Z,8.83
2018-08-17T23:41:03.891Z,6.90
2018-08-17T23:45:10.373Z,10.30
2018-08-17T23:49:14.057Z,8.70
2018-08-17T23:53:17.757Z,4.80
2018-08-17T23:57:21.459Z,7.13
